sensor_id;sensor_type;location;lat;lon;timestamp;temperature;humidity
1936;DHT22;969;49.892;10.896;2024-01-30T00:01:10;21.00;53.40
1936;DHT22;969;49.892;10.896;2024-01-30T00:03:36;21.00;53.50
1936;DHT22;969;49.892;10.896;2024-01-30T00:06:03;21.00;53.50
1936;DHT22;969;49.892;10.896;2024-01-30T00:08:29;21.00;53.50
1936;DHT22;969;49.892;10.896;2024-01-30T00:10:54;21.00;53.50
1936;DHT22;969;49.892;10.896;2024-01-30T00:13:20;21.00;53.50
1936;DHT22;969;49.892;10.896;2024-01-30T00:15:46;21.00;53.50
1936;DHT22;969;49.892;10.896;2024-01-30T00:18:11;20.90;53.40
1936;DHT22;969;49.892;10.896;2024-01-30T00:20:37;20.90;53.40
1936;DHT22;969;49.892;10.896;2024-01-30T00:23:03;21.00;53.50
1936;DHT22;969;49.892;10.896;2024-01-30T00:25:29;20.90;53.40
1936;DHT22;969;49.892;10.896;2024-01-30T00:27:54;20.90;53.40
1936;DHT22;969;49.892;10.896;2024-01-30T00:30:20;20.90;53.40
1936;DHT22;969;49.892;10.896;2024-01-30T00:32:46;20.90;53.40
1936;DHT22;969;49.892;10.896;2024-01-30T00:35:11;20.90;53.40
1936;DHT22;969;49.892;10.896;2024-01-30T00:37:37;20.90;53.40
1936;DHT22;969;49.892;10.896;2024-01-30T00:40:03;20.90;53.40
1936;DHT22;969;49.892;10.896;2024-01-30T00:42:29;20.90;53.40
1936;DHT22;969;49.892;10.896;2024-01-30T00:44:55;21.00;53.50
1936;DHT22;969;49.892;10.896;2024-01-30T00:47:20;20.90;53.50
1936;DHT22;969;49.892;10.896;2024-01-30T00:49:46;20.90;53.40
1936;DHT22;969;49.892;10.896;2024-01-30T00:52:11;20.90;53.40
1936;DHT22;969;49.892;10.896;2024-01-30T00:54:37;20.90;53.40
1936;DHT22;969;49.892;10.896;2024-01-30T00:57:03;20.90;53.40
1936;DHT22;969;49.892;10.896;2024-01-30T00:59:29;21.00;53.50
1936;DHT22;969;49.892;10.896;2024-01-30T01:01:54;20.90;53.40
1936;DHT22;969;49.892;10.896;2024-01-30T01:04:20;20.90;53.50
1936;DHT22;969;49.892;10.896;2024-01-30T01:06:47;20.90;53.40
1936;DHT22;969;49.892;10.896;2024-01-30T01:09:12;20.90;53.50
1936;DHT22;969;49.892;10.896;2024-01-30T01:11:38;20.90;53.40
1936;DHT22;969;49.892;10.896;2024-01-30T01:14:04;20.90;53.50
1936;DHT22;969;49.892;10.896;2024-01-30T01:16:30;20.90;53.50
1936;DHT22;969;49.892;10.896;2024-01-30T01:18:55;20.90;53.50
1936;DHT22;969;49.892;10.896;2024-01-30T01:21:21;20.90;53.50
1936;DHT22;969;49.892;10.896;2024-01-30T01:23:47;20.90;53.50
1936;DHT22;969;49.892;10.896;2024-01-30T01:26:12;20.90;53.50
1936;DHT22;969;49.892;10.896;2024-01-30T01:28:42;20.90;53.50
1936;DHT22;969;49.892;10.896;2024-01-30T01:31:08;20.90;53.50
1936;DHT22;969;49.892;10.896;2024-01-30T01:33:33;20.90;53.50
1936;DHT22;969;49.892;10.896;2024-01-30T01:36:00;20.90;53.50
1936;DHT22;969;49.892;10.896;2024-01-30T01:38:28;20.90;53.50
1936;DHT22;969;49.892;10.896;2024-01-30T01:40:53;20.90;53.50
1936;DHT22;969;49.892;10.896;2024-01-30T01:43:19;20.90;53.50
1936;DHT22;969;49.892;10.896;2024-01-30T01:45:45;20.90;53.50
1936;DHT22;969;49.892;10.896;2024-01-30T01:48:11;20.90;53.50
1936;DHT22;969;49.892;10.896;2024-01-30T01:50:38;20.80;53.40
1936;DHT22;969;49.892;10.896;2024-01-30T01:53:06;20.90;53.50
1936;DHT22;969;49.892;10.896;2024-01-30T01:55:33;20.80;53.40
1936;DHT22;969;49.892;10.896;2024-01-30T01:57:59;20.80;53.40
1936;DHT22;969;49.892;10.896;2024-01-30T02:00:25;20.80;53.40
1936;DHT22;969;49.892;10.896;2024-01-30T02:02:51;20.90;53.50
1936;DHT22;969;49.892;10.896;2024-01-30T02:05:20;20.80;53.40
1936;DHT22;969;49.892;10.896;2024-01-30T02:07:46;20.80;53.40
1936;DHT22;969;49.892;10.896;2024-01-30T02:10:12;20.80;53.40
1936;DHT22;969;49.892;10.896;2024-01-30T02:12:37;20.80;53.50
1936;DHT22;969;49.892;10.896;2024-01-30T02:15:04;20.80;53.40
1936;DHT22;969;49.892;10.896;2024-01-30T02:17:30;20.80;53.40
1936;DHT22;969;49.892;10.896;2024-01-30T02:19:56;20.80;53.40
1936;DHT22;969;49.892;10.896;2024-01-30T02:22:22;20.80;53.40
1936;DHT22;969;49.892;10.896;2024-01-30T02:24:48;20.80;53.40
1936;DHT22;969;49.892;10.896;2024-01-30T02:27:13;20.80;53.40
1936;DHT22;969;49.892;10.896;2024-01-30T02:29:39;20.80;53.40
1936;DHT22;969;49.892;10.896;2024-01-30T02:32:05;20.80;53.50
1936;DHT22;969;49.892;10.896;2024-01-30T02:34:31;20.80;53.50
1936;DHT22;969;49.892;10.896;2024-01-30T02:36:57;20.80;53.50
1936;DHT22;969;49.892;10.896;2024-01-30T02:39:23;20.80;53.40
1936;DHT22;969;49.892;10.896;2024-01-30T02:41:48;20.80;53.50
1936;DHT22;969;49.892;10.896;2024-01-30T02:44:14;20.80;53.40
1936;DHT22;969;49.892;10.896;2024-01-30T02:46:39;20.80;53.40
1936;DHT22;969;49.892;10.896;2024-01-30T02:49:05;20.80;53.50
1936;DHT22;969;49.892;10.896;2024-01-30T02:51:31;20.80;53.40
1936;DHT22;969;49.892;10.896;2024-01-30T02:53:56;20.80;53.40
1936;DHT22;969;49.892;10.896;2024-01-30T02:56:22;20.80;53.40
1936;DHT22;969;49.892;10.896;2024-01-30T02:58:47;20.80;53.50
1936;DHT22;969;49.892;10.896;2024-01-30T03:01:13;20.80;53.50
1936;DHT22;969;49.892;10.896;2024-01-30T03:03:38;20.80;53.50
1936;DHT22;969;49.892;10.896;2024-01-30T03:06:06;20.80;53.50
1936;DHT22;969;49.892;10.896;2024-01-30T03:08:32;20.80;53.40
1936;DHT22;969;49.892;10.896;2024-01-30T03:10:58;20.80;53.40
1936;DHT22;969;49.892;10.896;2024-01-30T03:13:23;20.80;53.50
1936;DHT22;969;49.892;10.896;2024-01-30T03:15:50;20.80;53.40
1936;DHT22;969;49.892;10.896;2024-01-30T03:18:16;20.80;53.40
1936;DHT22;969;49.892;10.896;2024-01-30T03:20:41;20.80;53.50
1936;DHT22;969;49.892;10.896;2024-01-30T03:23:07;20.80;53.40
1936;DHT22;969;49.892;10.896;2024-01-30T03:25:32;20.80;53.40
1936;DHT22;969;49.892;10.896;2024-01-30T03:27:58;20.80;53.50
1936;DHT22;969;49.892;10.896;2024-01-30T03:30:24;20.80;53.50
1936;DHT22;969;49.892;10.896;2024-01-30T03:32:49;20.80;53.50
1936;DHT22;969;49.892;10.896;2024-01-30T03:35:15;20.80;53.50
1936;DHT22;969;49.892;10.896;2024-01-30T03:37:41;20.80;53.50
1936;DHT22;969;49.892;10.896;2024-01-30T03:40:07;20.80;53.50
1936;DHT22;969;49.892;10.896;2024-01-30T03:42:33;20.80;53.50
1936;DHT22;969;49.892;10.896;2024-01-30T03:44:58;20.80;53.50
1936;DHT22;969;49.892;10.896;2024-01-30T03:47:24;20.80;54.00
1936;DHT22;969;49.892;10.896;2024-01-30T03:49:49;20.80;53.50
1936;DHT22;969;49.892;10.896;2024-01-30T03:52:15;20.80;53.50
1936;DHT22;969;49.892;10.896;2024-01-30T03:54:40;20.80;53.40
1936;DHT22;969;49.892;10.896;2024-01-30T03:57:06;20.80;53.40
1936;DHT22;969;49.892;10.896;2024-01-30T03:59:32;20.80;53.40
1936;DHT22;969;49.892;10.896;2024-01-30T04:01:57;20.80;53.40
1936;DHT22;969;49.892;10.896;2024-01-30T04:04:23;20.80;53.40
1936;DHT22;969;49.892;10.896;2024-01-30T04:06:49;20.80;53.40
1936;DHT22;969;49.892;10.896;2024-01-30T04:09:14;20.80;53.40
1936;DHT22;969;49.892;10.896;2024-01-30T04:11:41;20.80;53.40
1936;DHT22;969;49.892;10.896;2024-01-30T04:14:08;20.80;53.40
1936;DHT22;969;49.892;10.896;2024-01-30T04:16:33;20.80;53.40
1936;DHT22;969;49.892;10.896;2024-01-30T04:18:59;20.80;53.40
1936;DHT22;969;49.892;10.896;2024-01-30T04:21:25;20.80;53.40
1936;DHT22;969;49.892;10.896;2024-01-30T04:23:53;20.80;53.40
1936;DHT22;969;49.892;10.896;2024-01-30T04:26:19;20.80;53.40
1936;DHT22;969;49.892;10.896;2024-01-30T04:28:45;20.80;53.40
1936;DHT22;969;49.892;10.896;2024-01-30T04:31:11;20.80;53.40
1936;DHT22;969;49.892;10.896;2024-01-30T04:33:37;20.80;53.40
1936;DHT22;969;49.892;10.896;2024-01-30T04:36:02;20.70;53.30
1936;DHT22;969;49.892;10.896;2024-01-30T04:38:29;20.80;53.40
1936;DHT22;969;49.892;10.896;2024-01-30T04:40:54;20.80;53.40
1936;DHT22;969;49.892;10.896;2024-01-30T04:43:20;20.80;53.40
1936;DHT22;969;49.892;10.896;2024-01-30T04:45:46;20.80;53.40
1936;DHT22;969;49.892;10.896;2024-01-30T04:48:11;20.80;53.40
1936;DHT22;969;49.892;10.896;2024-01-30T04:50:37;20.70;53.30
1936;DHT22;969;49.892;10.896;2024-01-30T04:53:02;20.80;53.50
1936;DHT22;969;49.892;10.896;2024-01-30T04:55:28;20.70;53.30
1936;DHT22;969;49.892;10.896;2024-01-30T04:57:53;20.80;53.40
1936;DHT22;969;49.892;10.896;2024-01-30T05:00:19;20.70;53.40
1936;DHT22;969;49.892;10.896;2024-01-30T05:02:45;20.70;53.40
1936;DHT22;969;49.892;10.896;2024-01-30T05:05:10;20.70;53.40
1936;DHT22;969;49.892;10.896;2024-01-30T05:07:36;20.70;53.40
1936;DHT22;969;49.892;10.896;2024-01-30T05:10:02;20.80;53.50
1936;DHT22;969;49.892;10.896;2024-01-30T05:12:28;20.80;53.40
1936;DHT22;969;49.892;10.896;2024-01-30T05:14:54;20.70;53.30
1936;DHT22;969;49.892;10.896;2024-01-30T05:17:20;20.80;53.40
1936;DHT22;969;49.892;10.896;2024-01-30T05:19:45;20.80;53.40
1936;DHT22;969;49.892;10.896;2024-01-30T05:22:11;20.80;53.40
1936;DHT22;969;49.892;10.896;2024-01-30T05:24:44;20.80;53.40
1936;DHT22;969;49.892;10.896;2024-01-30T05:27:09;20.80;53.40
1936;DHT22;969;49.892;10.896;2024-01-30T05:29:35;20.80;53.40
1936;DHT22;969;49.892;10.896;2024-01-30T05:32:00;20.80;53.40
1936;DHT22;969;49.892;10.896;2024-01-30T05:34:26;20.80;53.30
1936;DHT22;969;49.892;10.896;2024-01-30T05:36:51;20.80;53.30
1936;DHT22;969;49.892;10.896;2024-01-30T05:39:17;20.80;53.30
1936;DHT22;969;49.892;10.896;2024-01-30T05:41:43;20.80;53.30
1936;DHT22;969;49.892;10.896;2024-01-30T05:44:08;20.80;53.30
1936;DHT22;969;49.892;10.896;2024-01-30T05:46:35;20.80;53.30
1936;DHT22;969;49.892;10.896;2024-01-30T05:49:01;20.80;53.30
1936;DHT22;969;49.892;10.896;2024-01-30T05:51:26;20.80;53.30
1936;DHT22;969;49.892;10.896;2024-01-30T05:53:53;20.80;53.30
1936;DHT22;969;49.892;10.896;2024-01-30T05:56:19;20.80;53.30
1936;DHT22;969;49.892;10.896;2024-01-30T05:58:45;20.80;53.30
1936;DHT22;969;49.892;10.896;2024-01-30T06:01:10;20.80;53.30
1936;DHT22;969;49.892;10.896;2024-01-30T06:03:36;20.80;53.30
1936;DHT22;969;49.892;10.896;2024-01-30T06:06:02;20.80;53.30
1936;DHT22;969;49.892;10.896;2024-01-30T06:08:28;20.80;53.30
1936;DHT22;969;49.892;10.896;2024-01-30T06:10:53;20.80;53.30
1936;DHT22;969;49.892;10.896;2024-01-30T06:13:19;20.80;53.30
1936;DHT22;969;49.892;10.896;2024-01-30T06:15:45;20.80;53.30
1936;DHT22;969;49.892;10.896;2024-01-30T06:18:11;20.80;53.30
1936;DHT22;969;49.892;10.896;2024-01-30T06:20:36;20.80;53.30
1936;DHT22;969;49.892;10.896;2024-01-30T06:23:02;20.80;53.30
1936;DHT22;969;49.892;10.896;2024-01-30T06:25:28;20.80;53.30
1936;DHT22;969;49.892;10.896;2024-01-30T06:27:53;20.80;53.30
1936;DHT22;969;49.892;10.896;2024-01-30T06:30:19;20.80;53.40
1936;DHT22;969;49.892;10.896;2024-01-30T06:32:45;20.90;53.40
1936;DHT22;969;49.892;10.896;2024-01-30T06:35:10;20.90;53.40
1936;DHT22;969;49.892;10.896;2024-01-30T06:37:36;20.90;53.40
1936;DHT22;969;49.892;10.896;2024-01-30T06:40:02;21.00;53.50
1936;DHT22;969;49.892;10.896;2024-01-30T06:42:30;21.00;53.50
1936;DHT22;969;49.892;10.896;2024-01-30T06:44:55;21.00;53.40
1936;DHT22;969;49.892;10.896;2024-01-30T06:47:21;21.00;53.40
1936;DHT22;969;49.892;10.896;2024-01-30T06:49:46;21.00;53.40
1936;DHT22;969;49.892;10.896;2024-01-30T06:52:12;21.10;53.40
1936;DHT22;969;49.892;10.896;2024-01-30T06:54:38;21.00;53.30
1936;DHT22;969;49.892;10.896;2024-01-30T06:57:03;21.10;53.40
1936;DHT22;969;49.892;10.896;2024-01-30T06:59:29;21.10;53.30
1936;DHT22;969;49.892;10.896;2024-01-30T07:01:55;21.10;53.30
1936;DHT22;969;49.892;10.896;2024-01-30T07:04:20;21.10;53.30
1936;DHT22;969;49.892;10.896;2024-01-30T07:06:46;21.10;53.30
1936;DHT22;969;49.892;10.896;2024-01-30T07:09:12;21.10;53.30
1936;DHT22;969;49.892;10.896;2024-01-30T07:11:37;21.10;53.30
1936;DHT22;969;49.892;10.896;2024-01-30T07:14:03;21.20;53.30
1936;DHT22;969;49.892;10.896;2024-01-30T07:16:31;21.20;53.30
1936;DHT22;969;49.892;10.896;2024-01-30T07:18:57;21.20;53.30
1936;DHT22;969;49.892;10.896;2024-01-30T07:21:22;21.20;53.30
1936;DHT22;969;49.892;10.896;2024-01-30T07:23:56;21.20;53.30
1936;DHT22;969;49.892;10.896;2024-01-30T07:26:22;21.20;53.30
1936;DHT22;969;49.892;10.896;2024-01-30T07:28:47;21.20;53.30
1936;DHT22;969;49.892;10.896;2024-01-30T07:31:13;21.20;53.20
1936;DHT22;969;49.892;10.896;2024-01-30T07:33:38;21.20;53.20
1936;DHT22;969;49.892;10.896;2024-01-30T07:36:04;21.20;53.20
1936;DHT22;969;49.892;10.896;2024-01-30T07:38:33;21.20;53.20
1936;DHT22;969;49.892;10.896;2024-01-30T07:40:59;21.20;53.20
1936;DHT22;969;49.892;10.896;2024-01-30T07:43:25;21.20;53.20
1936;DHT22;969;49.892;10.896;2024-01-30T07:45:50;21.20;53.20
1936;DHT22;969;49.892;10.896;2024-01-30T07:48:16;21.20;53.20
1936;DHT22;969;49.892;10.896;2024-01-30T07:50:41;21.20;53.20
1936;DHT22;969;49.892;10.896;2024-01-30T07:53:07;21.20;53.30
1936;DHT22;969;49.892;10.896;2024-01-30T07:55:33;21.20;53.20
1936;DHT22;969;49.892;10.896;2024-01-30T07:57:58;21.20;53.20
1936;DHT22;969;49.892;10.896;2024-01-30T08:00:24;21.20;53.20
1936;DHT22;969;49.892;10.896;2024-01-30T08:02:50;21.20;53.20
1936;DHT22;969;49.892;10.896;2024-01-30T08:05:16;21.20;53.20
1936;DHT22;969;49.892;10.896;2024-01-30T08:07:42;21.20;53.20
1936;DHT22;969;49.892;10.896;2024-01-30T08:10:11;21.20;53.20
1936;DHT22;969;49.892;10.896;2024-01-30T08:12:38;21.20;53.20
1936;DHT22;969;49.892;10.896;2024-01-30T08:15:05;21.20;53.20
1936;DHT22;969;49.892;10.896;2024-01-30T08:17:30;21.20;53.20
1936;DHT22;969;49.892;10.896;2024-01-30T08:19:56;21.30;53.30
1936;DHT22;969;49.892;10.896;2024-01-30T08:22:21;21.30;53.30
1936;DHT22;969;49.892;10.896;2024-01-30T08:24:47;21.30;53.30
1936;DHT22;969;49.892;10.896;2024-01-30T08:27:13;21.30;53.30
1936;DHT22;969;49.892;10.896;2024-01-30T08:29:38;21.30;53.30
1936;DHT22;969;49.892;10.896;2024-01-30T08:32:06;21.30;53.30
1936;DHT22;969;49.892;10.896;2024-01-30T08:34:32;21.30;53.30
1936;DHT22;969;49.892;10.896;2024-01-30T08:36:57;21.30;53.30
1936;DHT22;969;49.892;10.896;2024-01-30T08:39:23;21.30;53.30
1936;DHT22;969;49.892;10.896;2024-01-30T08:41:48;21.30;53.30
1936;DHT22;969;49.892;10.896;2024-01-30T08:44:14;21.30;53.30
1936;DHT22;969;49.892;10.896;2024-01-30T08:46:40;21.30;53.30
1936;DHT22;969;49.892;10.896;2024-01-30T08:49:05;21.30;53.30
1936;DHT22;969;49.892;10.896;2024-01-30T08:51:31;21.30;53.30
1936;DHT22;969;49.892;10.896;2024-01-30T08:53:56;21.30;53.30
1936;DHT22;969;49.892;10.896;2024-01-30T08:56:22;21.30;53.40
1936;DHT22;969;49.892;10.896;2024-01-30T08:58:48;21.30;53.40
1936;DHT22;969;49.892;10.896;2024-01-30T09:01:14;21.30;53.40
1936;DHT22;969;49.892;10.896;2024-01-30T09:03:39;21.30;53.40
1936;DHT22;969;49.892;10.896;2024-01-30T09:06:15;21.30;53.40
1936;DHT22;969;49.892;10.896;2024-01-30T09:08:41;21.30;53.40
1936;DHT22;969;49.892;10.896;2024-01-30T09:11:13;21.30;53.50
1936;DHT22;969;49.892;10.896;2024-01-30T09:13:39;21.30;53.50
1936;DHT22;969;49.892;10.896;2024-01-30T09:16:05;21.30;53.50
1936;DHT22;969;49.892;10.896;2024-01-30T09:18:31;21.30;53.50
1936;DHT22;969;49.892;10.896;2024-01-30T09:20:57;21.30;53.50
1936;DHT22;969;49.892;10.896;2024-01-30T09:23:22;21.30;53.50
1936;DHT22;969;49.892;10.896;2024-01-30T09:25:48;21.30;53.50
1936;DHT22;969;49.892;10.896;2024-01-30T09:28:14;21.30;53.50
1936;DHT22;969;49.892;10.896;2024-01-30T09:30:40;21.20;53.30
1936;DHT22;969;49.892;10.896;2024-01-30T09:33:06;21.30;53.50
1936;DHT22;969;49.892;10.896;2024-01-30T09:35:32;21.20;53.30
1936;DHT22;969;49.892;10.896;2024-01-30T09:37:57;21.20;53.30
1936;DHT22;969;49.892;10.896;2024-01-30T09:40:24;21.20;53.30
1936;DHT22;969;49.892;10.896;2024-01-30T09:42:52;21.20;53.30
1936;DHT22;969;49.892;10.896;2024-01-30T09:45:19;21.20;53.30
1936;DHT22;969;49.892;10.896;2024-01-30T09:47:45;21.20;53.30
1936;DHT22;969;49.892;10.896;2024-01-30T09:50:13;21.20;53.30
1936;DHT22;969;49.892;10.896;2024-01-30T09:52:39;21.20;53.30
1936;DHT22;969;49.892;10.896;2024-01-30T09:55:06;21.20;53.30
1936;DHT22;969;49.892;10.896;2024-01-30T09:57:34;21.20;53.90
1936;DHT22;969;49.892;10.896;2024-01-30T09:59:59;21.20;53.30
1936;DHT22;969;49.892;10.896;2024-01-30T10:02:25;21.20;53.30
1936;DHT22;969;49.892;10.896;2024-01-30T10:04:51;21.20;53.20
1936;DHT22;969;49.892;10.896;2024-01-30T10:07:18;21.20;53.20
1936;DHT22;969;49.892;10.896;2024-01-30T10:09:44;21.20;53.20
1936;DHT22;969;49.892;10.896;2024-01-30T10:12:09;21.20;53.20
1936;DHT22;969;49.892;10.896;2024-01-30T10:14:39;21.20;53.20
1936;DHT22;969;49.892;10.896;2024-01-30T10:17:06;21.20;53.20
1936;DHT22;969;49.892;10.896;2024-01-30T10:19:32;21.20;53.10
1936;DHT22;969;49.892;10.896;2024-01-30T10:22:00;21.20;53.10
1936;DHT22;969;49.892;10.896;2024-01-30T10:24:26;21.20;53.10
1936;DHT22;969;49.892;10.896;2024-01-30T10:26:53;21.20;53.10
1936;DHT22;969;49.892;10.896;2024-01-30T10:29:18;21.10;52.90
1936;DHT22;969;49.892;10.896;2024-01-30T10:31:44;21.10;52.90
1936;DHT22;969;49.892;10.896;2024-01-30T10:34:10;21.10;52.90
1936;DHT22;969;49.892;10.896;2024-01-30T10:36:40;21.20;52.80
1936;DHT22;969;49.892;10.896;2024-01-30T10:39:09;21.10;52.70
1936;DHT22;969;49.892;10.896;2024-01-30T10:41:43;21.20;52.80
1936;DHT22;969;49.892;10.896;2024-01-30T10:44:30;21.10;52.60
1936;DHT22;969;49.892;10.896;2024-01-30T10:47:03;21.10;52.70
1936;DHT22;969;49.892;10.896;2024-01-30T10:49:32;21.10;52.70
1936;DHT22;969;49.892;10.896;2024-01-30T10:51:58;21.10;52.70
1936;DHT22;969;49.892;10.896;2024-01-30T10:54:25;21.10;52.70
1936;DHT22;969;49.892;10.896;2024-01-30T10:56:52;21.10;52.80
1936;DHT22;969;49.892;10.896;2024-01-30T10:59:19;21.20;52.90
1936;DHT22;969;49.892;10.896;2024-01-30T11:01:45;21.10;52.80
1936;DHT22;969;49.892;10.896;2024-01-30T11:04:11;21.10;52.90
1936;DHT22;969;49.892;10.896;2024-01-30T11:06:43;21.10;52.90
1936;DHT22;969;49.892;10.896;2024-01-30T11:09:11;21.10;52.90
1936;DHT22;969;49.892;10.896;2024-01-30T11:12:11;21.10;52.90
1936;DHT22;969;49.892;10.896;2024-01-30T11:14:37;21.10;53.00
1936;DHT22;969;49.892;10.896;2024-01-30T11:17:05;21.10;53.00
1936;DHT22;969;49.892;10.896;2024-01-30T11:19:32;21.10;53.00
1936;DHT22;969;49.892;10.896;2024-01-30T11:21:58;21.10;53.00
1936;DHT22;969;49.892;10.896;2024-01-30T11:24:24;21.10;53.10
1936;DHT22;969;49.892;10.896;2024-01-30T11:26:55;21.10;53.10
1936;DHT22;969;49.892;10.896;2024-01-30T11:29:24;21.10;53.10
1936;DHT22;969;49.892;10.896;2024-01-30T11:31:59;21.10;53.10
1936;DHT22;969;49.892;10.896;2024-01-30T11:34:25;21.10;53.00
1936;DHT22;969;49.892;10.896;2024-01-30T11:36:59;21.10;53.10
1936;DHT22;969;49.892;10.896;2024-01-30T11:39:29;21.10;53.00
1936;DHT22;969;49.892;10.896;2024-01-30T11:41:55;21.10;53.00
1936;DHT22;969;49.892;10.896;2024-01-30T11:44:22;21.10;53.00
1936;DHT22;969;49.892;10.896;2024-01-30T11:46:51;21.10;53.00
1936;DHT22;969;49.892;10.896;2024-01-30T11:49:17;21.10;53.00
1936;DHT22;969;49.892;10.896;2024-01-30T11:51:45;21.10;53.00
1936;DHT22;969;49.892;10.896;2024-01-30T11:54:11;21.10;52.90
1936;DHT22;969;49.892;10.896;2024-01-30T11:56:37;21.10;53.00
1936;DHT22;969;49.892;10.896;2024-01-30T11:59:04;21.10;52.90
1936;DHT22;969;49.892;10.896;2024-01-30T12:01:30;21.10;52.90
1936;DHT22;969;49.892;10.896;2024-01-30T12:03:57;21.10;52.90
1936;DHT22;969;49.892;10.896;2024-01-30T12:06:23;21.00;52.90
1936;DHT22;969;49.892;10.896;2024-01-30T12:08:58;21.10;52.90
1936;DHT22;969;49.892;10.896;2024-01-30T12:11:25;21.00;52.80
1936;DHT22;969;49.892;10.896;2024-01-30T12:13:54;21.00;52.90
1936;DHT22;969;49.892;10.896;2024-01-30T12:16:20;21.00;52.90
1936;DHT22;969;49.892;10.896;2024-01-30T12:18:46;21.00;52.90
1936;DHT22;969;49.892;10.896;2024-01-30T12:21:11;21.00;52.90
1936;DHT22;969;49.892;10.896;2024-01-30T12:23:37;21.00;53.00
1936;DHT22;969;49.892;10.896;2024-01-30T12:26:04;21.10;53.00
1936;DHT22;969;49.892;10.896;2024-01-30T12:28:35;21.00;53.00
1936;DHT22;969;49.892;10.896;2024-01-30T12:31:02;21.00;53.00
1936;DHT22;969;49.892;10.896;2024-01-30T12:33:29;21.00;53.00
1936;DHT22;969;49.892;10.896;2024-01-30T12:35:55;21.00;53.00
1936;DHT22;969;49.892;10.896;2024-01-30T12:38:21;21.00;53.00
1936;DHT22;969;49.892;10.896;2024-01-30T12:40:47;21.00;53.00
1936;DHT22;969;49.892;10.896;2024-01-30T12:43:14;21.00;53.00
1936;DHT22;969;49.892;10.896;2024-01-30T12:45:41;21.00;53.00
1936;DHT22;969;49.892;10.896;2024-01-30T12:48:08;21.00;53.00
1936;DHT22;969;49.892;10.896;2024-01-30T12:50:34;21.00;53.10
1936;DHT22;969;49.892;10.896;2024-01-30T12:52:59;21.10;53.10
1936;DHT22;969;49.892;10.896;2024-01-30T12:55:25;21.00;53.10
1936;DHT22;969;49.892;10.896;2024-01-30T12:57:54;21.00;53.10
1936;DHT22;969;49.892;10.896;2024-01-30T13:00:20;21.00;53.10
1936;DHT22;969;49.892;10.896;2024-01-30T13:02:45;21.00;53.10
1936;DHT22;969;49.892;10.896;2024-01-30T13:05:12;21.00;53.10
1936;DHT22;969;49.892;10.896;2024-01-30T13:07:38;21.00;53.10
1936;DHT22;969;49.892;10.896;2024-01-30T13:10:04;21.00;53.10
1936;DHT22;969;49.892;10.896;2024-01-30T13:12:30;21.00;53.10
1936;DHT22;969;49.892;10.896;2024-01-30T13:14:57;21.00;53.10
1936;DHT22;969;49.892;10.896;2024-01-30T13:17:23;21.00;53.10
1936;DHT22;969;49.892;10.896;2024-01-30T13:19:49;21.00;53.10
1936;DHT22;969;49.892;10.896;2024-01-30T13:22:15;21.00;53.10
1936;DHT22;969;49.892;10.896;2024-01-30T13:24:41;21.10;53.20
1936;DHT22;969;49.892;10.896;2024-01-30T13:27:07;21.00;53.10
1936;DHT22;969;49.892;10.896;2024-01-30T13:29:33;21.00;53.10
1936;DHT22;969;49.892;10.896;2024-01-30T13:31:58;21.00;53.10
1936;DHT22;969;49.892;10.896;2024-01-30T13:34:24;21.00;53.10
1936;DHT22;969;49.892;10.896;2024-01-30T13:36:50;21.00;53.10
1936;DHT22;969;49.892;10.896;2024-01-30T13:39:16;21.00;53.10
1936;DHT22;969;49.892;10.896;2024-01-30T13:41:42;21.00;53.10
1936;DHT22;969;49.892;10.896;2024-01-30T13:44:08;21.00;53.10
1936;DHT22;969;49.892;10.896;2024-01-30T13:46:35;21.00;53.10
1936;DHT22;969;49.892;10.896;2024-01-30T13:49:01;21.00;53.10
1936;DHT22;969;49.892;10.896;2024-01-30T13:51:27;21.00;53.70
1936;DHT22;969;49.892;10.896;2024-01-30T13:53:53;21.10;53.20
1936;DHT22;969;49.892;10.896;2024-01-30T13:56:19;21.00;53.10
1936;DHT22;969;49.892;10.896;2024-01-30T13:58:47;21.00;53.10
1936;DHT22;969;49.892;10.896;2024-01-30T14:01:13;21.00;53.10
1936;DHT22;969;49.892;10.896;2024-01-30T14:03:39;21.00;53.10
1936;DHT22;969;49.892;10.896;2024-01-30T14:06:04;21.00;53.10
1936;DHT22;969;49.892;10.896;2024-01-30T14:08:30;21.00;53.10
1936;DHT22;969;49.892;10.896;2024-01-30T14:10:56;21.00;53.10
1936;DHT22;969;49.892;10.896;2024-01-30T14:13:22;21.00;53.10
1936;DHT22;969;49.892;10.896;2024-01-30T14:15:48;21.00;53.10
1936;DHT22;969;49.892;10.896;2024-01-30T14:18:15;21.00;53.10
1936;DHT22;969;49.892;10.896;2024-01-30T14:20:41;21.00;53.10
1936;DHT22;969;49.892;10.896;2024-01-30T14:23:06;21.00;53.20
1936;DHT22;969;49.892;10.896;2024-01-30T14:25:32;21.00;53.20
1936;DHT22;969;49.892;10.896;2024-01-30T14:27:58;21.10;53.30
1936;DHT22;969;49.892;10.896;2024-01-30T14:30:23;21.10;53.20
1936;DHT22;969;49.892;10.896;2024-01-30T14:32:49;21.10;53.20
1936;DHT22;969;49.892;10.896;2024-01-30T14:35:15;21.10;53.20
1936;DHT22;969;49.892;10.896;2024-01-30T14:37:41;21.10;53.20
1936;DHT22;969;49.892;10.896;2024-01-30T14:40:07;21.10;53.20
1936;DHT22;969;49.892;10.896;2024-01-30T14:42:33;21.10;53.20
1936;DHT22;969;49.892;10.896;2024-01-30T14:44:59;21.10;53.20
1936;DHT22;969;49.892;10.896;2024-01-30T14:47:25;21.10;53.20
1936;DHT22;969;49.892;10.896;2024-01-30T14:49:51;21.10;53.20
1936;DHT22;969;49.892;10.896;2024-01-30T14:52:17;21.10;53.20
1936;DHT22;969;49.892;10.896;2024-01-30T14:54:43;21.10;53.10
1936;DHT22;969;49.892;10.896;2024-01-30T14:57:09;21.10;53.10
1936;DHT22;969;49.892;10.896;2024-01-30T14:59:36;21.10;53.10
1936;DHT22;969;49.892;10.896;2024-01-30T15:02:01;21.10;53.10
1936;DHT22;969;49.892;10.896;2024-01-30T15:04:27;21.20;53.20
1936;DHT22;969;49.892;10.896;2024-01-30T15:06:53;21.10;53.10
1936;DHT22;969;49.892;10.896;2024-01-30T15:09:19;21.20;53.20
1936;DHT22;969;49.892;10.896;2024-01-30T15:11:46;21.20;53.20
1936;DHT22;969;49.892;10.896;2024-01-30T15:14:12;21.20;53.20
1936;DHT22;969;49.892;10.896;2024-01-30T15:16:38;21.20;53.20
1936;DHT22;969;49.892;10.896;2024-01-30T15:19:04;21.20;53.20
1936;DHT22;969;49.892;10.896;2024-01-30T15:21:31;21.20;53.20
1936;DHT22;969;49.892;10.896;2024-01-30T15:23:56;21.20;53.20
1936;DHT22;969;49.892;10.896;2024-01-30T15:26:22;21.20;53.20
1936;DHT22;969;49.892;10.896;2024-01-30T15:28:48;21.20;53.10
1936;DHT22;969;49.892;10.896;2024-01-30T15:31:13;21.20;53.20
1936;DHT22;969;49.892;10.896;2024-01-30T15:33:39;21.20;53.10
1936;DHT22;969;49.892;10.896;2024-01-30T15:36:05;21.20;53.10
1936;DHT22;969;49.892;10.896;2024-01-30T15:38:31;21.20;53.10
1936;DHT22;969;49.892;10.896;2024-01-30T15:40:57;21.20;53.10
1936;DHT22;969;49.892;10.896;2024-01-30T15:43:22;21.20;53.10
1936;DHT22;969;49.892;10.896;2024-01-30T15:45:49;21.20;53.10
1936;DHT22;969;49.892;10.896;2024-01-30T15:48:16;21.20;53.10
1936;DHT22;969;49.892;10.896;2024-01-30T15:50:42;21.20;53.10
1936;DHT22;969;49.892;10.896;2024-01-30T15:53:08;21.20;53.00
1936;DHT22;969;49.892;10.896;2024-01-30T15:55:33;21.20;53.10